If you wish to contribute or participate in the discussions about articles you are invited to join SKYbrary as a registered user

 Actions

Petropavlosk South Airport

From SKYbrary Wiki

UACP
Airport
ICAO: UACP – IATA: PPK
Summary
Name Petropavlosk South Airport
Region Asia and Pacific
Territory Kazakhstan KZ.gif
Location Petropavlosk
Serving Petropavlosk
Elevation 125.882 m
413 ft
413 ft125.882 m
Coordinates 54° 46' 28.92" N, 69° 11' 2.04" E
Runways
Designator Length Width Surface ROPS
5/23 2496 m8,188.976 ft
39 m127.953 ft
ASP /


METAR
Observation UACP 211030Z 18004MPS 150V220 9999 BKN033CB 16/03 Q1016 R23/0/0060 NOSIG RMK QFE749/0999
Station PETROPAVLOVSK
Date/Time 21 September 2019 10:30:00
Wind direction 180°
Wind speed kts
Lowest cloud amount broken clouds
Temperature 16°C
Dew point 3°C
Humidity 41%
QNH 1016 hPa
Weather condition n/a

Description

Petropavl Airport (also given as Petropavlovsk South) is an airport in Kazakhstan located 11 km south of Petropavl (Petropavlovsk).